Portada
METAR-TAF:

METAR-TAF

Aeroports :

Nadi, Fiji

latitud: 17-45S, longitud: 177-27E, altitud: 13 m

Observació

L'informe es va fer fa 34 minuts, a les 03:00 UTC
Vent 9 kt del Oest
Temperatura 27°C
Humitat 58%
Pressió 1013 hPa
Visibilitat 10 km o més
Núvols disperses a una alçada de 3000 ft

METAR: NFFN 180300Z 27009KT 9999 SCT030 27/18 Q1013 NOSIG

Hora: 15:34 (03:34 UTC)

Pronòstic

L'informe es va fer fa 4 hores i 8 minuts, a les 23:26 UTC
Pronòstic vàlid del 18 a les 00 UTC al 18 a les 24 UTC
Vent 10 kt del Oest
Visibilitat 10 km o més
Escasses núvols a una alçada de 2400 ft
Núvols disperses a una alçada de 5000 ft
Evolucionant progressivament
l' 18 a les 04 UTC al 18 a les 06 UTC
Vent 6 kt del Est
Evolucionant progressivament
l' 18 a les 23 UTC al 18 a les 24 UTC
Vent 10 kt del Oest

TAF: NFFN 172326Z 1800/1824 27010KT 9999 FEW024 SCT050 BECMG 1804/1806 09006KT BECMG 1823/1824 27010KT

Observacions i pronòstics meteorològics de més de 4000 aeroports (METAR i TAF).

Les estacions disponibles són els punts grocs i vermells al mapa.

Posi el ratolí al punt desitjat per veure el nom de l'estació.

Feu clic per veure les observacions i els pronòstics meteorològics.

Per canviar el mapa: feu clic els botons verds amb una creu de color negre per apropar; al botó verd amb un guió per allunyar la imatge; o en les fletxes verdes per a mapes adjacents.


METAR-TAF: